Kezdőlap
METAR-TAF:

METAR-TAF

Repülőterek :

Port Hawkesbury, Új-Skócia, Kanada

földrajzi szélesség: 45-40N, földrajzi hosszúság: 061-23W, magasság: 114 m

Jelenlegi meteorológiai megfigyelések

A jelentés 56 perccel ezelõtt készült, 08:00 UTC
Keleti szél 10 kt széllökések: 15 kt
Hőmérséklet 1°C
Páratartalom 86%
Légköri nyomás 1016 hPa
Látótávolság: 14.5 km
Kevés felhő 1700 lábon
Borult 5500 lábon

METAR: CYPD 240800Z AUTO 08010G15KT 9SM FEW017 OVC055 01/M01 A3000 RMK SLP164

Idő: 05:56 (08:56 UTC)


TAF: hiányzik

Meteorológiai megfigyelések és előrejelzések több, mint 4000 repülőtéren (METAR és TAF jelentéseket).

A térképen piros és sárga pontok jelzik az elérhető meteorológiai állomásokat.

Mozgassa az egeret a pont fölött, hogy megjelenjen az állomás neve.

Azután kattintson az időjárási megfigyelések és előrejelzések megtekintéséhez.

A térkép megváltoztatása: kattintson a fekete keresztel jelölt zöld gombra ráközelítéshez, a vonallal jelölt zöld gombra távolításhoz, vagy a zöld nyilakra a szomszédos térképek eléréséhez.


METAR-TAF: